Terminal Aerodrome Forecast
Issued by NWS

Home | Current Version | Previous Version | Text Only | Print | Product List | Glossary On
Versions: 1 2 3 4 5 6 7 8 9 10 11 12 13 14 15 16
000
FTUS44 KMAF 010500
TAFFST
TAF
KFST 010528Z 0106/0206 20008KT P6SM FEW025 SCT070
     FM011700 34013KT P6SM BKN050
     FM012200 01009KT P6SM BKN025
     FM020400 05007KT P6SM SCT050=

USA.gov is the U.S. government's official web portal to all federal, state and local government web resources and services.